sensor_id;sensor_type;location;lat;lon;timestamp;temperature;humidity
17994;DHT22;9122;48.406;9.984;2022-11-02T00:00:12;12.00;94.70
17994;DHT22;9122;48.406;9.984;2022-11-02T00:02:58;11.90;94.70
17994;DHT22;9122;48.406;9.984;2022-11-02T00:05:42;11.80;95.10
17994;DHT22;9122;48.406;9.984;2022-11-02T00:08:26;11.80;95.10
17994;DHT22;9122;48.406;9.984;2022-11-02T00:11:10;11.80;95.20
17994;DHT22;9122;48.406;9.984;2022-11-02T00:13:54;11.90;95.30
17994;DHT22;9122;48.406;9.984;2022-11-02T00:16:38;11.80;95.40
17994;DHT22;9122;48.406;9.984;2022-11-02T00:19:23;11.80;95.50
17994;DHT22;9122;48.406;9.984;2022-11-02T00:22:07;11.80;95.30
17994;DHT22;9122;48.406;9.984;2022-11-02T00:24:52;11.70;95.00
17994;DHT22;9122;48.406;9.984;2022-11-02T00:27:37;11.70;94.90
17994;DHT22;9122;48.406;9.984;2022-11-02T00:30:22;11.70;94.80
17994;DHT22;9122;48.406;9.984;2022-11-02T00:33:06;11.60;94.70
17994;DHT22;9122;48.406;9.984;2022-11-02T00:35:52;11.50;94.60
17994;DHT22;9122;48.406;9.984;2022-11-02T00:38:37;11.50;94.70
17994;DHT22;9122;48.406;9.984;2022-11-02T00:41:21;11.50;94.60
17994;DHT22;9122;48.406;9.984;2022-11-02T00:44:05;11.50;94.50
17994;DHT22;9122;48.406;9.984;2022-11-02T00:46:49;11.40;94.40
17994;DHT22;9122;48.406;9.984;2022-11-02T00:49:35;11.40;94.40
17994;DHT22;9122;48.406;9.984;2022-11-02T00:52:19;11.40;94.40
17994;DHT22;9122;48.406;9.984;2022-11-02T00:55:03;11.30;94.40
17994;DHT22;9122;48.406;9.984;2022-11-02T00:57:48;11.30;94.40
17994;DHT22;9122;48.406;9.984;2022-11-02T01:00:32;11.30;94.50
17994;DHT22;9122;48.406;9.984;2022-11-02T01:03:17;11.20;94.60
17994;DHT22;9122;48.406;9.984;2022-11-02T01:06:14;11.20;94.60
17994;DHT22;9122;48.406;9.984;2022-11-02T01:08:58;11.20;94.50
17994;DHT22;9122;48.406;9.984;2022-11-02T01:11:43;11.10;94.60
17994;DHT22;9122;48.406;9.984;2022-11-02T01:14:28;11.10;94.80
17994;DHT22;9122;48.406;9.984;2022-11-02T01:17:13;11.10;95.10
17994;DHT22;9122;48.406;9.984;2022-11-02T01:19:58;11.10;95.50
17994;DHT22;9122;48.406;9.984;2022-11-02T01:22:42;11.10;95.90
17994;DHT22;9122;48.406;9.984;2022-11-02T01:25:28;11.00;96.10
17994;DHT22;9122;48.406;9.984;2022-11-02T01:28:12;11.00;96.20
17994;DHT22;9122;48.406;9.984;2022-11-02T01:30:58;11.00;96.00
17994;DHT22;9122;48.406;9.984;2022-11-02T01:33:43;11.00;95.60
17994;DHT22;9122;48.406;9.984;2022-11-02T01:36:28;11.10;95.50
17994;DHT22;9122;48.406;9.984;2022-11-02T01:39:13;10.90;95.40
17994;DHT22;9122;48.406;9.984;2022-11-02T01:41:58;10.90;95.30
17994;DHT22;9122;48.406;9.984;2022-11-02T01:44:42;10.80;95.20
17994;DHT22;9122;48.406;9.984;2022-11-02T01:47:31;10.80;95.10
17994;DHT22;9122;48.406;9.984;2022-11-02T01:50:20;10.80;94.90
17994;DHT22;9122;48.406;9.984;2022-11-02T01:53:04;10.80;94.80
17994;DHT22;9122;48.406;9.984;2022-11-02T01:55:50;10.80;94.70
17994;DHT22;9122;48.406;9.984;2022-11-02T01:58:35;10.70;94.60
17994;DHT22;9122;48.406;9.984;2022-11-02T02:01:19;10.70;94.50
17994;DHT22;9122;48.406;9.984;2022-11-02T02:04:04;10.60;94.40
17994;DHT22;9122;48.406;9.984;2022-11-02T02:06:49;10.60;94.70
17994;DHT22;9122;48.406;9.984;2022-11-02T02:09:34;10.60;94.30
17994;DHT22;9122;48.406;9.984;2022-11-02T02:12:19;10.60;94.30
17994;DHT22;9122;48.406;9.984;2022-11-02T02:15:04;10.50;94.20
17994;DHT22;9122;48.406;9.984;2022-11-02T02:17:57;10.50;94.20
17994;DHT22;9122;48.406;9.984;2022-11-02T02:20:52;10.50;94.30
17994;DHT22;9122;48.406;9.984;2022-11-02T02:27:22;10.40;94.50
17994;DHT22;9122;48.406;9.984;2022-11-02T02:30:11;10.40;94.50
17994;DHT22;9122;48.406;9.984;2022-11-02T02:33:00;10.40;94.50
17994;DHT22;9122;48.406;9.984;2022-11-02T02:35:54;10.40;94.40
17994;DHT22;9122;48.406;9.984;2022-11-02T02:38:41;10.40;94.40
17994;DHT22;9122;48.406;9.984;2022-11-02T02:41:39;10.40;94.70
17994;DHT22;9122;48.406;9.984;2022-11-02T02:44:28;10.30;94.90
17994;DHT22;9122;48.406;9.984;2022-11-02T02:47:19;10.30;94.80
17994;DHT22;9122;48.406;9.984;2022-11-02T02:50:28;10.30;94.80
17994;DHT22;9122;48.406;9.984;2022-11-02T02:53:16;10.30;95.00
17994;DHT22;9122;48.406;9.984;2022-11-02T02:56:03;10.20;95.20
17994;DHT22;9122;48.406;9.984;2022-11-02T02:59:02;10.20;95.50
17994;DHT22;9122;48.406;9.984;2022-11-02T03:01:48;10.20;95.70
17994;DHT22;9122;48.406;9.984;2022-11-02T03:04:32;10.20;96.00
17994;DHT22;9122;48.406;9.984;2022-11-02T03:07:23;10.20;96.20
17994;DHT22;9122;48.406;9.984;2022-11-02T03:19:22;10.20;96.50
17994;DHT22;9122;48.406;9.984;2022-11-02T03:22:32;10.10;96.40
17994;DHT22;9122;48.406;9.984;2022-11-02T03:25:29;10.10;96.40
17994;DHT22;9122;48.406;9.984;2022-11-02T03:34:26;10.10;96.30
17994;DHT22;9122;48.406;9.984;2022-11-02T03:40:07;10.10;96.70
17994;DHT22;9122;48.406;9.984;2022-11-02T03:42:56;10.10;96.90
17994;DHT22;9122;48.406;9.984;2022-11-02T03:45:47;10.10;97.10
17994;DHT22;9122;48.406;9.984;2022-11-02T03:48:36;10.10;97.40
17994;DHT22;9122;48.406;9.984;2022-11-02T03:51:23;10.10;97.60
17994;DHT22;9122;48.406;9.984;2022-11-02T03:54:28;10.10;97.70
17994;DHT22;9122;48.406;9.984;2022-11-02T03:57:24;10.10;97.90
17994;DHT22;9122;48.406;9.984;2022-11-02T04:00:15;10.10;97.90
17994;DHT22;9122;48.406;9.984;2022-11-02T04:03:01;10.10;98.00
17994;DHT22;9122;48.406;9.984;2022-11-02T04:05:47;10.20;98.10
17994;DHT22;9122;48.406;9.984;2022-11-02T04:08:34;10.20;98.20
17994;DHT22;9122;48.406;9.984;2022-11-02T04:11:19;10.30;98.40
17994;DHT22;9122;48.406;9.984;2022-11-02T04:14:22;10.20;98.40
17994;DHT22;9122;48.406;9.984;2022-11-02T04:17:21;10.20;98.30
17994;DHT22;9122;48.406;9.984;2022-11-02T04:20:41;10.20;98.30
17994;DHT22;9122;48.406;9.984;2022-11-02T04:23:25;10.20;98.20
17994;DHT22;9122;48.406;9.984;2022-11-02T04:26:28;10.20;98.10
17994;DHT22;9122;48.406;9.984;2022-11-02T04:29:12;10.20;98.10
17994;DHT22;9122;48.406;9.984;2022-11-02T04:31:56;10.20;98.10
17994;DHT22;9122;48.406;9.984;2022-11-02T04:34:41;10.30;98.10
17994;DHT22;9122;48.406;9.984;2022-11-02T04:37:25;10.30;98.10
17994;DHT22;9122;48.406;9.984;2022-11-02T04:40:29;10.30;98.20
17994;DHT22;9122;48.406;9.984;2022-11-02T04:43:13;10.30;98.20
17994;DHT22;9122;48.406;9.984;2022-11-02T04:45:58;10.30;98.20
17994;DHT22;9122;48.406;9.984;2022-11-02T04:48:42;10.30;98.10
17994;DHT22;9122;48.406;9.984;2022-11-02T04:51:28;10.30;98.00
17994;DHT22;9122;48.406;9.984;2022-11-02T04:54:13;10.30;98.10
17994;DHT22;9122;48.406;9.984;2022-11-02T04:56:57;10.30;98.00
17994;DHT22;9122;48.406;9.984;2022-11-02T04:59:41;10.30;98.00
17994;DHT22;9122;48.406;9.984;2022-11-02T05:02:25;10.30;97.90
17994;DHT22;9122;48.406;9.984;2022-11-02T05:05:10;10.30;97.80
17994;DHT22;9122;48.406;9.984;2022-11-02T05:07:55;10.30;97.30
17994;DHT22;9122;48.406;9.984;2022-11-02T05:10:39;10.30;96.80
17994;DHT22;9122;48.406;9.984;2022-11-02T05:13:24;10.20;96.50
17994;DHT22;9122;48.406;9.984;2022-11-02T05:16:16;10.20;96.20
17994;DHT22;9122;48.406;9.984;2022-11-02T05:19:00;10.10;96.10
17994;DHT22;9122;48.406;9.984;2022-11-02T05:21:44;10.10;96.10
17994;DHT22;9122;48.406;9.984;2022-11-02T05:24:29;10.10;96.20
17994;DHT22;9122;48.406;9.984;2022-11-02T05:27:14;10.10;96.20
17994;DHT22;9122;48.406;9.984;2022-11-02T05:29:58;10.00;96.20
17994;DHT22;9122;48.406;9.984;2022-11-02T05:32:43;10.10;96.30
17994;DHT22;9122;48.406;9.984;2022-11-02T05:35:27;10.00;96.70
17994;DHT22;9122;48.406;9.984;2022-11-02T05:38:11;10.00;96.50
17994;DHT22;9122;48.406;9.984;2022-11-02T05:40:57;10.00;96.70
17994;DHT22;9122;48.406;9.984;2022-11-02T05:43:42;10.00;96.90
17994;DHT22;9122;48.406;9.984;2022-11-02T05:46:26;10.00;97.00
17994;DHT22;9122;48.406;9.984;2022-11-02T05:49:11;10.00;97.10
17994;DHT22;9122;48.406;9.984;2022-11-02T05:51:56;10.00;97.20
17994;DHT22;9122;48.406;9.984;2022-11-02T05:54:40;10.00;97.30
17994;DHT22;9122;48.406;9.984;2022-11-02T05:57:24;10.00;97.40
17994;DHT22;9122;48.406;9.984;2022-11-02T06:00:09;10.00;97.40
17994;DHT22;9122;48.406;9.984;2022-11-02T06:02:56;10.00;97.40
17994;DHT22;9122;48.406;9.984;2022-11-02T06:05:41;10.00;97.50
17994;DHT22;9122;48.406;9.984;2022-11-02T06:08:25;10.00;97.50
17994;DHT22;9122;48.406;9.984;2022-11-02T06:11:11;9.90;97.50
17994;DHT22;9122;48.406;9.984;2022-11-02T06:13:56;10.00;97.50
17994;DHT22;9122;48.406;9.984;2022-11-02T06:16:41;10.00;97.40
17994;DHT22;9122;48.406;9.984;2022-11-02T06:19:25;10.00;97.40
17994;DHT22;9122;48.406;9.984;2022-11-02T06:22:09;9.90;97.40
17994;DHT22;9122;48.406;9.984;2022-11-02T06:24:53;10.00;97.50
17994;DHT22;9122;48.406;9.984;2022-11-02T06:27:38;10.00;97.40
17994;DHT22;9122;48.406;9.984;2022-11-02T06:30:23;10.00;97.40
17994;DHT22;9122;48.406;9.984;2022-11-02T06:33:08;9.90;97.40
17994;DHT22;9122;48.406;9.984;2022-11-02T06:35:53;10.00;97.40
17994;DHT22;9122;48.406;9.984;2022-11-02T06:38:38;9.90;97.40
17994;DHT22;9122;48.406;9.984;2022-11-02T06:41:23;9.90;97.40
17994;DHT22;9122;48.406;9.984;2022-11-02T06:44:07;10.00;97.50
17994;DHT22;9122;48.406;9.984;2022-11-02T06:46:51;9.90;97.50
17994;DHT22;9122;48.406;9.984;2022-11-02T06:49:36;10.00;97.50
17994;DHT22;9122;48.406;9.984;2022-11-02T06:52:20;10.00;97.50
17994;DHT22;9122;48.406;9.984;2022-11-02T06:55:04;10.00;97.40
17994;DHT22;9122;48.406;9.984;2022-11-02T06:57:48;10.00;97.50
17994;DHT22;9122;48.406;9.984;2022-11-02T07:00:33;10.00;97.60
17994;DHT22;9122;48.406;9.984;2022-11-02T07:03:18;10.00;97.80
17994;DHT22;9122;48.406;9.984;2022-11-02T07:06:03;10.10;98.00
17994;DHT22;9122;48.406;9.984;2022-11-02T07:08:47;10.10;98.10
17994;DHT22;9122;48.406;9.984;2022-11-02T07:11:31;10.10;98.20
17994;DHT22;9122;48.406;9.984;2022-11-02T07:14:16;10.20;98.30
17994;DHT22;9122;48.406;9.984;2022-11-02T07:17:01;10.20;98.40
17994;DHT22;9122;48.406;9.984;2022-11-02T07:19:45;10.30;98.50
17994;DHT22;9122;48.406;9.984;2022-11-02T07:22:30;10.30;98.50
17994;DHT22;9122;48.406;9.984;2022-11-02T07:25:15;10.40;98.50
17994;DHT22;9122;48.406;9.984;2022-11-02T07:28:01;10.50;98.50
17994;DHT22;9122;48.406;9.984;2022-11-02T07:30:46;10.60;98.50
17994;DHT22;9122;48.406;9.984;2022-11-02T07:33:30;10.80;98.40
17994;DHT22;9122;48.406;9.984;2022-11-02T07:36:15;11.00;98.40
17994;DHT22;9122;48.406;9.984;2022-11-02T07:38:59;11.30;98.20
17994;DHT22;9122;48.406;9.984;2022-11-02T07:41:43;11.30;97.80
17994;DHT22;9122;48.406;9.984;2022-11-02T07:44:29;11.50;97.50
17994;DHT22;9122;48.406;9.984;2022-11-02T07:47:14;11.60;97.40
17994;DHT22;9122;48.406;9.984;2022-11-02T07:49:58;11.80;97.20
17994;DHT22;9122;48.406;9.984;2022-11-02T07:55:29;11.90;97.20
17994;DHT22;9122;48.406;9.984;2022-11-02T07:58:14;11.90;96.70
17994;DHT22;9122;48.406;9.984;2022-11-02T08:00:59;12.00;96.70
17994;DHT22;9122;48.406;9.984;2022-11-02T08:03:43;12.00;96.70
17994;DHT22;9122;48.406;9.984;2022-11-02T08:06:28;11.90;97.00
17994;DHT22;9122;48.406;9.984;2022-11-02T08:09:12;12.00;96.70
17994;DHT22;9122;48.406;9.984;2022-11-02T08:11:58;12.00;96.70
17994;DHT22;9122;48.406;9.984;2022-11-02T08:14:43;12.00;96.90
17994;DHT22;9122;48.406;9.984;2022-11-02T08:17:27;12.00;96.90
17994;DHT22;9122;48.406;9.984;2022-11-02T08:20:12;12.10;96.90
17994;DHT22;9122;48.406;9.984;2022-11-02T08:22:57;12.30;96.90
17994;DHT22;9122;48.406;9.984;2022-11-02T08:25:43;12.30;96.80
17994;DHT22;9122;48.406;9.984;2022-11-02T08:28:30;12.50;96.80
17994;DHT22;9122;48.406;9.984;2022-11-02T08:31:21;12.60;96.80
17994;DHT22;9122;48.406;9.984;2022-11-02T08:36:52;13.10;97.10
17994;DHT22;9122;48.406;9.984;2022-11-02T08:39:36;13.10;96.10
17994;DHT22;9122;48.406;9.984;2022-11-02T08:42:20;13.20;95.70
17994;DHT22;9122;48.406;9.984;2022-11-02T08:45:05;13.20;95.50
17994;DHT22;9122;48.406;9.984;2022-11-02T08:47:50;13.20;95.50
17994;DHT22;9122;48.406;9.984;2022-11-02T08:50:35;13.20;95.60
17994;DHT22;9122;48.406;9.984;2022-11-02T08:53:20;13.10;95.80
17994;DHT22;9122;48.406;9.984;2022-11-02T08:56:05;13.10;96.00
17994;DHT22;9122;48.406;9.984;2022-11-02T08:58:49;13.00;96.10
17994;DHT22;9122;48.406;9.984;2022-11-02T09:01:34;13.00;96.20
17994;DHT22;9122;48.406;9.984;2022-11-02T09:04:19;12.90;96.40
17994;DHT22;9122;48.406;9.984;2022-11-02T09:07:04;12.90;96.60
17994;DHT22;9122;48.406;9.984;2022-11-02T09:09:48;12.90;96.70
17994;DHT22;9122;48.406;9.984;2022-11-02T09:12:32;13.00;96.80
17994;DHT22;9122;48.406;9.984;2022-11-02T09:15:17;13.00;96.90
17994;DHT22;9122;48.406;9.984;2022-11-02T09:18:02;13.10;96.80
17994;DHT22;9122;48.406;9.984;2022-11-02T09:20:47;13.10;96.80
17994;DHT22;9122;48.406;9.984;2022-11-02T09:23:32;13.20;96.80
17994;DHT22;9122;48.406;9.984;2022-11-02T09:26:16;13.20;97.10
17994;DHT22;9122;48.406;9.984;2022-11-02T09:29:01;13.20;96.80
17994;DHT22;9122;48.406;9.984;2022-11-02T09:31:45;13.20;96.80
17994;DHT22;9122;48.406;9.984;2022-11-02T09:34:32;13.20;96.90
17994;DHT22;9122;48.406;9.984;2022-11-02T09:37:16;13.20;96.90
17994;DHT22;9122;48.406;9.984;2022-11-02T09:40:01;13.20;96.90
17994;DHT22;9122;48.406;9.984;2022-11-02T09:48:42;13.40;96.70
17994;DHT22;9122;48.406;9.984;2022-11-02T09:51:36;13.40;96.70
17994;DHT22;9122;48.406;9.984;2022-11-02T09:57:29;13.40;96.70
17994;DHT22;9122;48.406;9.984;2022-11-02T10:00:15;13.40;96.60
17994;DHT22;9122;48.406;9.984;2022-11-02T10:06:44;13.40;96.00
17994;DHT22;9122;48.406;9.984;2022-11-02T10:09:37;13.40;95.60
17994;DHT22;9122;48.406;9.984;2022-11-02T10:12:30;13.40;95.20
17994;DHT22;9122;48.406;9.984;2022-11-02T10:15:40;13.50;95.10
17994;DHT22;9122;48.406;9.984;2022-11-02T10:18:27;13.50;94.80
17994;DHT22;9122;48.406;9.984;2022-11-02T10:21:16;13.50;94.20
17994;DHT22;9122;48.406;9.984;2022-11-02T10:24:25;13.50;93.70
17994;DHT22;9122;48.406;9.984;2022-11-02T10:27:19;13.70;93.20
17994;DHT22;9122;48.406;9.984;2022-11-02T10:30:19;13.80;92.80
17994;DHT22;9122;48.406;9.984;2022-11-02T10:33:13;13.90;92.70
17994;DHT22;9122;48.406;9.984;2022-11-02T10:39:29;13.90;92.40
17994;DHT22;9122;48.406;9.984;2022-11-02T10:45:06;14.00;92.20
17994;DHT22;9122;48.406;9.984;2022-11-02T10:51:09;14.10;92.00
17994;DHT22;9122;48.406;9.984;2022-11-02T10:53:53;14.10;91.90
17994;DHT22;9122;48.406;9.984;2022-11-02T10:56:39;14.10;91.50
17994;DHT22;9122;48.406;9.984;2022-11-02T10:59:24;14.20;91.10
17994;DHT22;9122;48.406;9.984;2022-11-02T11:02:13;14.20;90.80
17994;DHT22;9122;48.406;9.984;2022-11-02T11:05:11;14.20;90.80
17994;DHT22;9122;48.406;9.984;2022-11-02T11:07:58;14.20;90.70
17994;DHT22;9122;48.406;9.984;2022-11-02T11:10:43;14.20;90.80
17994;DHT22;9122;48.406;9.984;2022-11-02T11:13:29;14.30;90.70
17994;DHT22;9122;48.406;9.984;2022-11-02T11:16:13;14.30;90.70
17994;DHT22;9122;48.406;9.984;2022-11-02T11:18:58;14.30;90.80
17994;DHT22;9122;48.406;9.984;2022-11-02T11:21:43;14.40;91.60
17994;DHT22;9122;48.406;9.984;2022-11-02T11:24:30;14.40;92.20
17994;DHT22;9122;48.406;9.984;2022-11-02T11:27:20;14.40;92.30
17994;DHT22;9122;48.406;9.984;2022-11-02T11:35:56;14.40;93.00
17994;DHT22;9122;48.406;9.984;2022-11-02T11:38:45;14.40;92.90
17994;DHT22;9122;48.406;9.984;2022-11-02T11:41:32;14.40;92.90
17994;DHT22;9122;48.406;9.984;2022-11-02T11:44:17;14.40;92.60
17994;DHT22;9122;48.406;9.984;2022-11-02T11:47:02;14.50;93.00
17994;DHT22;9122;48.406;9.984;2022-11-02T11:58:31;15.50;93.40
17994;DHT22;9122;48.406;9.984;2022-11-02T12:01:16;14.50;93.10
17994;DHT22;9122;48.406;9.984;2022-11-02T12:04:03;14.60;94.30
17994;DHT22;9122;48.406;9.984;2022-11-02T12:42:30;14.70;92.20
17994;DHT22;9122;48.406;9.984;2022-11-02T12:51:31;14.70;92.20
17994;DHT22;9122;48.406;9.984;2022-11-02T12:54:20;14.80;92.10
17994;DHT22;9122;48.406;9.984;2022-11-02T12:57:09;14.80;92.10
17994;DHT22;9122;48.406;9.984;2022-11-02T12:59:59;14.80;92.00
17994;DHT22;9122;48.406;9.984;2022-11-02T13:06:10;14.80;91.90
17994;DHT22;9122;48.406;9.984;2022-11-02T13:12:04;14.90;91.70
17994;DHT22;9122;48.406;9.984;2022-11-02T13:14:51;14.80;91.70
17994;DHT22;9122;48.406;9.984;2022-11-02T13:17:44;14.90;91.60
17994;DHT22;9122;48.406;9.984;2022-11-02T13:20:38;14.90;91.50
17994;DHT22;9122;48.406;9.984;2022-11-02T13:26:34;15.10;91.20
17994;DHT22;9122;48.406;9.984;2022-11-02T13:29:51;15.20;91.00
17994;DHT22;9122;48.406;9.984;2022-11-02T13:32:39;15.20;90.80
17994;DHT22;9122;48.406;9.984;2022-11-02T13:35:33;15.30;90.50
17994;DHT22;9122;48.406;9.984;2022-11-02T13:50:40;15.30;90.00
17994;DHT22;9122;48.406;9.984;2022-11-02T13:53:28;15.30;90.00
17994;DHT22;9122;48.406;9.984;2022-11-02T13:56:22;15.30;90.10
17994;DHT22;9122;48.406;9.984;2022-11-02T13:59:09;15.30;90.20
17994;DHT22;9122;48.406;9.984;2022-11-02T14:02:02;15.30;90.00
17994;DHT22;9122;48.406;9.984;2022-11-02T14:04:47;15.30;89.50
17994;DHT22;9122;48.406;9.984;2022-11-02T14:07:37;15.30;89.20
17994;DHT22;9122;48.406;9.984;2022-11-02T14:10:22;15.30;89.30
17994;DHT22;9122;48.406;9.984;2022-11-02T14:13:13;15.30;89.20
17994;DHT22;9122;48.406;9.984;2022-11-02T14:16:00;15.30;89.00
17994;DHT22;9122;48.406;9.984;2022-11-02T14:18:45;15.30;89.00
17994;DHT22;9122;48.406;9.984;2022-11-02T14:30:38;15.30;89.50
17994;DHT22;9122;48.406;9.984;2022-11-02T14:39:15;15.40;89.90
17994;DHT22;9122;48.406;9.984;2022-11-02T14:42:11;15.40;89.90
17994;DHT22;9122;48.406;9.984;2022-11-02T14:48:12;15.40;90.00
17994;DHT22;9122;48.406;9.984;2022-11-02T14:51:06;15.40;89.70
17994;DHT22;9122;48.406;9.984;2022-11-02T14:56:58;15.40;89.00
17994;DHT22;9122;48.406;9.984;2022-11-02T14:59:46;15.40;88.90
17994;DHT22;9122;48.406;9.984;2022-11-02T15:02:36;15.40;88.80
17994;DHT22;9122;48.406;9.984;2022-11-02T15:05:35;15.40;88.80
17994;DHT22;9122;48.406;9.984;2022-11-02T15:08:26;15.40;88.70
17994;DHT22;9122;48.406;9.984;2022-11-02T15:11:43;15.40;88.80
17994;DHT22;9122;48.406;9.984;2022-11-02T15:25:50;15.40;88.40
17994;DHT22;9122;48.406;9.984;2022-11-02T15:28:35;15.40;88.60
17994;DHT22;9122;48.406;9.984;2022-11-02T15:31:21;15.40;88.80
17994;DHT22;9122;48.406;9.984;2022-11-02T15:34:13;15.30;88.90
17994;DHT22;9122;48.406;9.984;2022-11-02T15:37:01;15.30;89.00
17994;DHT22;9122;48.406;9.984;2022-11-02T15:39:53;15.30;89.10
17994;DHT22;9122;48.406;9.984;2022-11-02T15:45:55;15.20;89.30
17994;DHT22;9122;48.406;9.984;2022-11-02T15:51:39;15.20;90.20
17994;DHT22;9122;48.406;9.984;2022-11-02T15:57:56;15.20;90.20
17994;DHT22;9122;48.406;9.984;2022-11-02T16:01:24;15.20;90.30
17994;DHT22;9122;48.406;9.984;2022-11-02T16:04:09;15.20;90.50
17994;DHT22;9122;48.406;9.984;2022-11-02T16:07:03;15.20;90.70
17994;DHT22;9122;48.406;9.984;2022-11-02T16:09:48;15.10;90.70
17994;DHT22;9122;48.406;9.984;2022-11-02T16:12:33;15.10;90.80
17994;DHT22;9122;48.406;9.984;2022-11-02T16:15:18;15.10;91.00
17994;DHT22;9122;48.406;9.984;2022-11-02T16:18:02;15.10;90.80
17994;DHT22;9122;48.406;9.984;2022-11-02T16:20:47;15.10;90.90
17994;DHT22;9122;48.406;9.984;2022-11-02T16:23:36;15.10;91.00
17994;DHT22;9122;48.406;9.984;2022-11-02T16:26:25;15.10;91.10
17994;DHT22;9122;48.406;9.984;2022-11-02T16:29:10;15.10;91.10
17994;DHT22;9122;48.406;9.984;2022-11-02T16:31:55;15.00;91.10
17994;DHT22;9122;48.406;9.984;2022-11-02T16:34:39;15.00;91.20
17994;DHT22;9122;48.406;9.984;2022-11-02T16:37:25;15.00;91.30
17994;DHT22;9122;48.406;9.984;2022-11-02T16:40:19;15.00;91.30
17994;DHT22;9122;48.406;9.984;2022-11-02T16:43:04;15.00;91.20
17994;DHT22;9122;48.406;9.984;2022-11-02T16:45:49;15.00;91.20
17994;DHT22;9122;48.406;9.984;2022-11-02T16:48:33;14.90;91.30
17994;DHT22;9122;48.406;9.984;2022-11-02T16:51:18;14.90;91.30
17994;DHT22;9122;48.406;9.984;2022-11-02T16:57:20;14.80;90.90
17994;DHT22;9122;48.406;9.984;2022-11-02T17:00:16;14.80;90.80
17994;DHT22;9122;48.406;9.984;2022-11-02T17:03:09;14.80;90.80
17994;DHT22;9122;48.406;9.984;2022-11-02T17:06:00;14.80;90.80
17994;DHT22;9122;48.406;9.984;2022-11-02T17:08:51;14.80;90.80
17994;DHT22;9122;48.406;9.984;2022-11-02T17:11:40;14.80;90.60
17994;DHT22;9122;48.406;9.984;2022-11-02T17:14:27;14.70;90.60
17994;DHT22;9122;48.406;9.984;2022-11-02T17:23:00;14.70;90.60
17994;DHT22;9122;48.406;9.984;2022-11-02T17:25:44;14.60;90.60
17994;DHT22;9122;48.406;9.984;2022-11-02T17:31:36;14.60;90.70
17994;DHT22;9122;48.406;9.984;2022-11-02T17:34:24;14.60;90.90
17994;DHT22;9122;48.406;9.984;2022-11-02T17:37:29;14.60;91.00
17994;DHT22;9122;48.406;9.984;2022-11-02T17:40:14;14.60;91.00
17994;DHT22;9122;48.406;9.984;2022-11-02T17:42:58;14.50;91.00
17994;DHT22;9122;48.406;9.984;2022-11-02T17:45:43;14.50;91.00
17994;DHT22;9122;48.406;9.984;2022-11-02T17:48:27;14.40;91.10
17994;DHT22;9122;48.406;9.984;2022-11-02T17:51:11;14.40;91.10
17994;DHT22;9122;48.406;9.984;2022-11-02T17:53:56;14.40;91.10
17994;DHT22;9122;48.406;9.984;2022-11-02T17:56:41;14.40;91.20
17994;DHT22;9122;48.406;9.984;2022-11-02T17:59:25;14.40;91.20
17994;DHT22;9122;48.406;9.984;2022-11-02T18:02:13;14.40;91.20
17994;DHT22;9122;48.406;9.984;2022-11-02T18:04:58;14.30;91.30
17994;DHT22;9122;48.406;9.984;2022-11-02T18:07:43;14.30;91.40
17994;DHT22;9122;48.406;9.984;2022-11-02T18:10:30;14.30;91.50
17994;DHT22;9122;48.406;9.984;2022-11-02T18:13:18;14.30;91.50
17994;DHT22;9122;48.406;9.984;2022-11-02T18:16:03;14.20;91.60
17994;DHT22;9122;48.406;9.984;2022-11-02T18:18:47;14.20;91.70
17994;DHT22;9122;48.406;9.984;2022-11-02T18:21:32;14.20;91.60
17994;DHT22;9122;48.406;9.984;2022-11-02T18:24:16;14.20;91.50
17994;DHT22;9122;48.406;9.984;2022-11-02T18:27:01;14.10;91.50
17994;DHT22;9122;48.406;9.984;2022-11-02T18:29:45;14.10;91.60
17994;DHT22;9122;48.406;9.984;2022-11-02T18:32:29;14.10;91.60
17994;DHT22;9122;48.406;9.984;2022-11-02T18:35:19;14.10;91.70
17994;DHT22;9122;48.406;9.984;2022-11-02T18:38:04;14.00;91.80
17994;DHT22;9122;48.406;9.984;2022-11-02T18:40:48;14.00;91.90
17994;DHT22;9122;48.406;9.984;2022-11-02T18:43:32;13.90;91.90
17994;DHT22;9122;48.406;9.984;2022-11-02T18:46:17;13.90;92.00
17994;DHT22;9122;48.406;9.984;2022-11-02T18:49:02;13.90;92.00
17994;DHT22;9122;48.406;9.984;2022-11-02T18:51:46;13.90;92.10
17994;DHT22;9122;48.406;9.984;2022-11-02T18:54:31;13.80;92.20
17994;DHT22;9122;48.406;9.984;2022-11-02T18:57:16;13.80;92.20
17994;DHT22;9122;48.406;9.984;2022-11-02T19:00:00;13.80;92.20
17994;DHT22;9122;48.406;9.984;2022-11-02T19:02:45;13.80;92.20
17994;DHT22;9122;48.406;9.984;2022-11-02T19:05:30;13.80;92.20
17994;DHT22;9122;48.406;9.984;2022-11-02T19:08:33;13.70;92.30
17994;DHT22;9122;48.406;9.984;2022-11-02T19:11:36;13.70;92.40
17994;DHT22;9122;48.406;9.984;2022-11-02T19:14:22;13.70;92.40
17994;DHT22;9122;48.406;9.984;2022-11-02T19:17:08;13.70;92.40
17994;DHT22;9122;48.406;9.984;2022-11-02T19:19:53;13.70;92.30
17994;DHT22;9122;48.406;9.984;2022-11-02T19:22:39;13.60;92.10
17994;DHT22;9122;48.406;9.984;2022-11-02T19:25:23;13.60;92.10
17994;DHT22;9122;48.406;9.984;2022-11-02T19:28:07;13.50;92.20
17994;DHT22;9122;48.406;9.984;2022-11-02T19:30:52;13.50;92.30
17994;DHT22;9122;48.406;9.984;2022-11-02T19:33:36;13.50;92.40
17994;DHT22;9122;48.406;9.984;2022-11-02T19:36:21;13.40;92.40
17994;DHT22;9122;48.406;9.984;2022-11-02T19:39:07;13.40;92.40
17994;DHT22;9122;48.406;9.984;2022-11-02T19:41:52;13.30;92.50
17994;DHT22;9122;48.406;9.984;2022-11-02T19:44:37;13.30;92.50
17994;DHT22;9122;48.406;9.984;2022-11-02T19:47:22;13.30;92.60
17994;DHT22;9122;48.406;9.984;2022-11-02T19:50:07;13.20;92.60
17994;DHT22;9122;48.406;9.984;2022-11-02T19:52:51;13.20;92.70
17994;DHT22;9122;48.406;9.984;2022-11-02T19:55:36;13.20;92.70
17994;DHT22;9122;48.406;9.984;2022-11-02T19:58:20;13.10;92.60
17994;DHT22;9122;48.406;9.984;2022-11-02T20:01:09;13.10;92.70
17994;DHT22;9122;48.406;9.984;2022-11-02T20:03:54;13.00;92.70
17994;DHT22;9122;48.406;9.984;2022-11-02T20:06:41;13.00;92.80
17994;DHT22;9122;48.406;9.984;2022-11-02T20:09:26;13.00;92.70
17994;DHT22;9122;48.406;9.984;2022-11-02T20:12:10;12.90;92.60
17994;DHT22;9122;48.406;9.984;2022-11-02T20:14:56;12.90;92.50
17994;DHT22;9122;48.406;9.984;2022-11-02T20:17:40;12.90;92.40
17994;DHT22;9122;48.406;9.984;2022-11-02T20:20:25;12.80;92.40
17994;DHT22;9122;48.406;9.984;2022-11-02T20:23:10;12.70;92.40
17994;DHT22;9122;48.406;9.984;2022-11-02T20:26:01;12.70;92.40
17994;DHT22;9122;48.406;9.984;2022-11-02T20:28:47;12.70;92.30
17994;DHT22;9122;48.406;9.984;2022-11-02T20:31:35;12.60;92.30
17994;DHT22;9122;48.406;9.984;2022-11-02T20:34:19;12.60;92.30
17994;DHT22;9122;48.406;9.984;2022-11-02T20:37:04;12.60;92.40
17994;DHT22;9122;48.406;9.984;2022-11-02T20:39:49;12.50;92.50
17994;DHT22;9122;48.406;9.984;2022-11-02T20:42:34;12.50;92.50
17994;DHT22;9122;48.406;9.984;2022-11-02T20:45:19;12.50;92.50
17994;DHT22;9122;48.406;9.984;2022-11-02T20:48:03;12.40;92.40
17994;DHT22;9122;48.406;9.984;2022-11-02T20:50:48;12.40;92.50
17994;DHT22;9122;48.406;9.984;2022-11-02T20:53:32;12.30;92.50
17994;DHT22;9122;48.406;9.984;2022-11-02T20:56:18;12.30;92.50